createdAt,value
2022-12-04T00:03:23.503Z,5.78
2022-12-04T00:06:47.706Z,5.78
2022-12-04T00:10:09.867Z,5.78
2022-12-04T00:13:33.907Z,5.75
2022-12-04T00:16:55.596Z,5.73
2022-12-04T00:20:17.249Z,5.73
2022-12-04T00:23:39.632Z,5.75
2022-12-04T00:27:01.398Z,5.85
2022-12-04T00:30:22.923Z,5.76
2022-12-04T00:33:44.585Z,5.78
2022-12-04T00:37:06.162Z,5.78
2022-12-04T00:40:27.742Z,5.71
2022-12-04T00:43:52.691Z,5.69
2022-12-04T00:47:17.202Z,5.73
2022-12-04T00:50:38.931Z,5.72
2022-12-04T00:54:00.522Z,5.76
2022-12-04T00:57:24.283Z,5.78
2022-12-04T01:00:48.852Z,5.78
2022-12-04T01:04:10.425Z,5.78
2022-12-04T01:07:32.210Z,5.81
2022-12-04T01:10:53.804Z,5.81
2022-12-04T01:14:15.370Z,5.88
2022-12-04T01:17:37.222Z,5.92
2022-12-04T01:20:58.777Z,5.93
2022-12-04T01:24:22.465Z,5.99
2022-12-04T01:27:44.009Z,5.86
2022-12-04T01:31:11.000Z,5.88
2022-12-04T01:34:33.530Z,5.81
2022-12-04T01:37:59.857Z,5.78
2022-12-04T01:41:27.026Z,5.79
2022-12-04T01:45:42.928Z,5.68
2022-12-04T01:49:09.323Z,5.71
2022-12-04T01:52:31.134Z,5.66
2022-12-04T01:55:53.153Z,5.62
2022-12-04T01:59:21.883Z,5.54
2022-12-04T02:02:50.249Z,5.59
2022-12-04T02:06:11.870Z,5.51
2022-12-04T02:09:34.820Z,5.55
2022-12-04T02:13:05.504Z,5.54
2022-12-04T02:16:36.890Z,5.55
2022-12-04T02:20:28.410Z,5.40
2022-12-04T02:24:20.303Z,5.48
2022-12-04T02:27:41.820Z,5.48
2022-12-04T02:31:12.385Z,5.44
2022-12-04T02:35:04.184Z,5.30
2022-12-04T02:38:45.173Z,5.23
2022-12-04T02:42:33.381Z,5.26
2022-12-04T02:46:19.181Z,5.31
2022-12-04T02:49:46.906Z,5.20
2022-12-04T02:53:29.111Z,5.13
2022-12-04T02:56:54.009Z,5.28
2022-12-04T03:00:16.524Z,5.23
2022-12-04T03:03:38.320Z,5.03
2022-12-04T03:07:07.198Z,5.00
2022-12-04T03:10:31.754Z,4.95
2022-12-04T03:14:00.135Z,5.09
2022-12-04T03:17:35.059Z,5.16
2022-12-04T03:21:02.166Z,5.19
2022-12-04T03:24:27.040Z,5.12
2022-12-04T03:28:17.175Z,5.07
2022-12-04T03:32:07.299Z,5.07
2022-12-04T03:36:13.869Z,4.99
2022-12-04T03:39:48.792Z,4.99
2022-12-04T03:43:19.627Z,4.99
2022-12-04T03:46:50.222Z,5.03
2022-12-04T03:50:32.278Z,5.09
2022-12-04T03:53:58.157Z,5.06
2022-12-04T03:57:27.757Z,5.06
2022-12-04T04:00:55.473Z,4.99
2022-12-04T04:04:27.073Z,4.95
2022-12-04T04:07:55.994Z,4.76
2022-12-04T04:11:42.692Z,4.79
2022-12-04T04:15:28.460Z,4.76
2022-12-04T04:19:11.485Z,4.75
2022-12-04T04:22:56.025Z,4.75
2022-12-04T04:26:22.042Z,4.73
2022-12-04T04:29:51.870Z,4.82
2022-12-04T04:33:16.618Z,4.89
2022-12-04T04:36:41.054Z,4.85
2022-12-04T04:40:32.382Z,4.97
2022-12-04T04:44:04.812Z,5.01
2022-12-04T04:47:49.325Z,4.97
2022-12-04T04:51:14.326Z,5.03
2022-12-04T04:54:38.910Z,5.06
2022-12-04T04:58:14.834Z,5.09
2022-12-04T05:01:40.406Z,5.16
2022-12-04T05:05:02.095Z,5.19
2022-12-04T05:08:24.197Z,5.19
2022-12-04T05:11:48.254Z,5.09
2022-12-04T05:15:10.764Z,5.14
2022-12-04T05:18:33.726Z,5.10
2022-12-04T05:21:57.264Z,5.09
2022-12-04T05:25:18.768Z,5.10
2022-12-04T05:28:42.354Z,4.99
2022-12-04T05:32:04.134Z,5.06
2022-12-04T05:35:25.707Z,5.07
2022-12-04T05:38:49.484Z,5.06
2022-12-04T05:42:11.347Z,5.03
2022-12-04T05:45:35.365Z,4.96
2022-12-04T05:48:57.641Z,4.77
2022-12-04T05:52:21.640Z,4.76
2022-12-04T05:55:43.203Z,4.66
2022-12-04T05:59:07.025Z,4.62
2022-12-04T06:02:31.436Z,4.68
2022-12-04T06:05:55.377Z,4.65
2022-12-04T06:09:19.274Z,4.69
2022-12-04T06:12:43.010Z,4.72
2022-12-04T06:16:04.941Z,4.82
2022-12-04T06:19:26.506Z,4.83
2022-12-04T06:22:50.286Z,4.72
2022-12-04T06:26:11.818Z,4.59
2022-12-04T06:29:33.418Z,4.52
2022-12-04T06:32:57.491Z,4.51
2022-12-04T06:36:22.340Z,4.65
2022-12-04T06:39:43.905Z,4.64
2022-12-04T06:43:06.547Z,4.75
2022-12-04T06:46:33.482Z,4.83
2022-12-04T06:49:57.491Z,4.68
2022-12-04T06:53:21.651Z,4.76
2022-12-04T06:56:45.930Z,4.90
2022-12-04T07:00:08.203Z,4.96
2022-12-04T07:03:30.176Z,5.01
2022-12-04T07:06:51.678Z,4.97
2022-12-04T07:10:16.246Z,4.96
2022-12-04T07:13:38.069Z,4.93
2022-12-04T07:17:02.011Z,4.80
2022-12-04T07:20:24.175Z,4.77
2022-12-04T07:23:49.959Z,4.76
2022-12-04T07:27:11.719Z,4.99
2022-12-04T07:30:37.038Z,5.03
2022-12-04T07:33:59.140Z,5.13
2022-12-04T07:37:20.676Z,5.17
2022-12-04T07:40:44.868Z,5.27
2022-12-04T07:44:06.423Z,5.34
2022-12-04T07:47:27.947Z,5.51
2022-12-04T07:50:49.513Z,5.98
2022-12-04T07:54:11.078Z,6.21
2022-12-04T07:57:33.381Z,6.77
2022-12-04T08:00:54.954Z,7.22
2022-12-04T08:04:16.903Z,7.33
2022-12-04T08:07:45.670Z,7.67
2022-12-04T08:11:07.967Z,7.64
2022-12-04T08:14:29.514Z,7.61
2022-12-04T08:17:51.078Z,7.50
2022-12-04T08:21:15.879Z,7.16
2022-12-04T08:24:37.529Z,7.27
2022-12-04T08:27:59.146Z,7.36
2022-12-04T08:31:26.149Z,7.43
2022-12-04T08:34:55.732Z,7.42
2022-12-04T08:38:17.729Z,7.40
2022-12-04T08:41:39.217Z,7.50
2022-12-04T08:45:03.498Z,7.51
2022-12-04T08:48:25.414Z,7.64
2022-12-04T08:51:46.989Z,7.63
2022-12-04T08:55:11.258Z,7.50
2022-12-04T08:58:36.232Z,7.46
2022-12-04T09:01:57.809Z,7.54
2022-12-04T09:05:21.725Z,7.58
2022-12-04T09:08:46.366Z,7.74
2022-12-04T09:12:07.962Z,7.88
2022-12-04T09:15:29.845Z,7.92
2022-12-04T09:18:51.558Z,7.61
2022-12-04T09:22:16.065Z,7.60
2022-12-04T09:25:37.996Z,7.53
2022-12-04T09:29:01.657Z,7.63
2022-12-04T09:32:23.281Z,7.81
2022-12-04T09:35:44.831Z,7.96
2022-12-04T09:39:10.367Z,8.26
2022-12-04T09:42:40.111Z,8.54
2022-12-04T09:46:11.330Z,8.72
2022-12-04T09:49:53.810Z,8.88
2022-12-04T09:53:22.699Z,9.05
2022-12-04T09:56:54.804Z,9.16
2022-12-04T10:00:22.658Z,9.66
2022-12-04T10:03:46.602Z,10.21
2022-12-04T10:07:18.780Z,10.84
2022-12-04T10:10:42.660Z,10.87
2022-12-04T10:14:22.269Z,11.07
2022-12-04T10:18:17.891Z,11.18
2022-12-04T10:21:47.684Z,11.28
2022-12-04T10:25:15.157Z,11.59
2022-12-04T10:28:43.603Z,11.82
2022-12-04T10:32:25.131Z,12.01
2022-12-04T10:35:53.113Z,12.21
2022-12-04T10:39:35.390Z,12.25
2022-12-04T10:43:25.167Z,12.58
2022-12-04T10:46:50.807Z,12.58
2022-12-04T10:50:20.687Z,12.76
2022-12-04T10:53:42.585Z,12.90
2022-12-04T10:57:05.835Z,12.83
2022-12-04T11:00:35.926Z,12.85
2022-12-04T11:04:08.776Z,12.86
2022-12-04T11:07:32.344Z,13.13
2022-12-04T11:11:07.462Z,12.89
2022-12-04T11:14:30.551Z,12.97
2022-12-04T11:17:52.854Z,13.16
2022-12-04T11:21:29.771Z,13.16
2022-12-04T11:24:57.909Z,13.17
2022-12-04T11:28:42.736Z,13.34
2022-12-04T11:32:17.021Z,13.23
2022-12-04T11:35:39.827Z,13.31
2022-12-04T11:39:06.903Z,13.23
2022-12-04T11:42:33.268Z,13.16
2022-12-04T11:46:06.996Z,13.21
2022-12-04T11:49:33.337Z,12.70
2022-12-04T11:53:13.501Z,12.53
2022-12-04T11:56:40.439Z,12.92
2022-12-04T12:00:05.178Z,13.00
2022-12-04T12:03:32.245Z,12.90
2022-12-04T12:07:30.557Z,12.72
2022-12-04T12:11:00.858Z,12.56
2022-12-04T12:14:28.855Z,12.42
2022-12-04T12:18:16.500Z,12.34
2022-12-04T12:22:09.783Z,12.23
2022-12-04T12:25:52.452Z,12.32
2022-12-04T12:30:05.466Z,11.91
2022-12-04T12:33:34.678Z,11.65
2022-12-04T12:37:01.171Z,11.36
2022-12-04T12:40:49.068Z,11.22
2022-12-04T12:44:34.654Z,11.28
2022-12-04T12:48:01.847Z,11.27
2022-12-04T12:51:30.478Z,11.55
2022-12-04T12:54:57.722Z,11.72
2022-12-04T12:58:29.306Z,11.87
2022-12-04T13:02:00.530Z,12.00
2022-12-04T13:05:29.552Z,12.07
2022-12-04T13:09:02.634Z,11.76
2022-12-04T13:12:27.421Z,11.52
2022-12-04T13:15:55.265Z,11.29
2022-12-04T13:19:31.330Z,11.18
2022-12-04T13:23:15.017Z,10.91
2022-12-04T13:26:49.029Z,10.70
2022-12-04T13:30:20.192Z,10.50
2022-12-04T13:33:50.855Z,10.36
2022-12-04T13:37:36.323Z,10.14
2022-12-04T13:41:02.134Z,9.93
2022-12-04T13:44:27.345Z,9.74
2022-12-04T13:47:58.625Z,9.78
2022-12-04T13:51:20.103Z,9.78
2022-12-04T13:54:41.786Z,9.85
2022-12-04T13:58:26.136Z,9.77
2022-12-04T14:01:53.896Z,9.53
2022-12-04T14:05:15.658Z,9.50
2022-12-04T14:08:39.587Z,9.40
2022-12-04T14:12:06.172Z,9.42
2022-12-04T14:15:32.609Z,9.29
2022-12-04T14:18:59.601Z,9.27
2022-12-04T14:22:31.533Z,9.33
2022-12-04T14:25:59.069Z,9.26
2022-12-04T14:29:32.747Z,9.20
2022-12-04T14:33:03.235Z,9.15
2022-12-04T14:36:28.166Z,9.14
2022-12-04T14:39:51.367Z,9.14
2022-12-04T14:43:44.997Z,9.14
2022-12-04T14:47:34.843Z,9.06
2022-12-04T14:51:14.540Z,9.02
2022-12-04T14:54:36.007Z,9.15
2022-12-04T14:58:21.422Z,8.95
2022-12-04T15:01:43.032Z,8.85
2022-12-04T15:05:09.717Z,8.87
2022-12-04T15:08:31.379Z,8.82
2022-12-04T15:12:13.981Z,8.87
2022-12-04T15:15:38.297Z,8.89
2022-12-04T15:19:00.625Z,8.97
2022-12-04T15:22:28.239Z,8.89
2022-12-04T15:25:54.073Z,8.91
2022-12-04T15:29:21.709Z,8.92
2022-12-04T15:32:43.737Z,8.85
2022-12-04T15:36:11.681Z,8.79
2022-12-04T15:39:35.559Z,8.71
2022-12-04T15:43:14.262Z,8.79
2022-12-04T15:46:39.066Z,8.82
2022-12-04T15:50:15.728Z,8.87
2022-12-04T15:53:39.919Z,8.81
2022-12-04T15:57:07.294Z,8.75
2022-12-04T16:00:31.099Z,8.75
2022-12-04T16:03:57.558Z,8.72
2022-12-04T16:07:25.592Z,8.75
2022-12-04T16:10:57.696Z,8.77
2022-12-04T16:14:21.710Z,8.65
2022-12-04T16:17:43.234Z,8.64
2022-12-04T16:21:11.478Z,8.57
2022-12-04T16:24:35.435Z,8.51
2022-12-04T16:28:00.944Z,8.47
2022-12-04T16:31:24.066Z,8.51
2022-12-04T16:34:48.721Z,8.43
2022-12-04T16:38:16.448Z,8.53
2022-12-04T16:41:38.055Z,8.53
2022-12-04T16:44:59.850Z,8.50
2022-12-04T16:48:24.027Z,8.53
2022-12-04T16:51:49.875Z,8.53
2022-12-04T16:55:26.639Z,8.49
2022-12-04T16:58:48.639Z,8.51
2022-12-04T17:02:24.553Z,8.56
2022-12-04T17:05:48.612Z,8.53
2022-12-04T17:09:13.205Z,8.46
2022-12-04T17:12:37.235Z,8.47
2022-12-04T17:16:01.688Z,8.50
2022-12-04T17:19:28.452Z,8.51
2022-12-04T17:22:50.248Z,8.49
2022-12-04T17:26:14.814Z,8.47
2022-12-04T17:29:36.574Z,8.44
2022-12-04T17:33:00.528Z,8.47
2022-12-04T17:36:25.119Z,8.53
2022-12-04T17:39:46.923Z,8.49
2022-12-04T17:43:10.939Z,8.49
2022-12-04T17:46:32.678Z,8.39
2022-12-04T17:49:56.622Z,8.33
2022-12-04T17:53:20.789Z,8.41
2022-12-04T17:56:47.473Z,8.34
2022-12-04T18:00:11.119Z,8.39
2022-12-04T18:03:35.454Z,8.32
2022-12-04T18:06:57.053Z,8.28
2022-12-04T18:10:18.611Z,8.29
2022-12-04T18:13:40.179Z,8.28
2022-12-04T18:17:02.768Z,8.25
2022-12-04T18:20:28.923Z,8.20
2022-12-04T18:23:50.875Z,8.16
2022-12-04T18:27:17.323Z,8.13
2022-12-04T18:30:39.980Z,8.14
2022-12-04T18:34:04.714Z,8.26
2022-12-04T18:37:26.282Z,8.29
2022-12-04T18:40:47.832Z,8.29
2022-12-04T18:44:15.210Z,8.29
2022-12-04T18:47:36.806Z,8.26
2022-12-04T18:50:58.436Z,8.22
2022-12-04T18:54:23.939Z,8.16
2022-12-04T18:57:45.502Z,8.16
2022-12-04T19:01:12.262Z,8.07
2022-12-04T19:04:33.885Z,8.14
2022-12-04T19:07:57.517Z,8.19
2022-12-04T19:11:19.323Z,8.22
2022-12-04T19:14:40.877Z,8.14
2022-12-04T19:18:05.871Z,8.10
2022-12-04T19:21:29.947Z,8.22
2022-12-04T19:24:51.471Z,8.33
2022-12-04T19:28:13.038Z,8.22
2022-12-04T19:31:37.627Z,8.17
2022-12-04T19:34:59.225Z,8.23
2022-12-04T19:38:20.749Z,8.98
2022-12-04T19:41:47.287Z,9.27
2022-12-04T19:45:09.223Z,9.42
2022-12-04T19:48:33.278Z,9.35
2022-12-04T19:51:57.306Z,9.26
2022-12-04T19:55:18.822Z,8.91
2022-12-04T19:58:40.764Z,8.82
2022-12-04T20:02:05.352Z,8.56
2022-12-04T20:05:26.977Z,8.41
2022-12-04T20:08:54.211Z,8.75
2022-12-04T20:12:15.756Z,9.20
2022-12-04T20:15:38.510Z,9.57
2022-12-04T20:19:04.364Z,9.99
2022-12-04T20:22:30.885Z,10.12
2022-12-04T20:25:52.480Z,9.88
2022-12-04T20:29:16.246Z,10.05
2022-12-04T20:32:37.866Z,10.18
2022-12-04T20:36:00.740Z,10.18
2022-12-04T20:39:22.468Z,9.94
2022-12-04T20:42:44.107Z,9.30
2022-12-04T20:46:22.868Z,9.35
2022-12-04T20:49:47.408Z,9.40
2022-12-04T20:53:09.084Z,9.64
2022-12-04T20:56:34.253Z,9.40
2022-12-04T20:59:56.104Z,9.40
2022-12-04T21:03:17.868Z,9.44
2022-12-04T21:06:40.924Z,8.75
2022-12-04T21:10:03.540Z,8.41
2022-12-04T21:13:43.514Z,8.09
2022-12-04T21:17:09.531Z,7.91
2022-12-04T21:20:31.381Z,7.84
2022-12-04T21:23:53.229Z,7.74
2022-12-04T21:27:20.686Z,7.71
2022-12-04T21:30:44.916Z,8.03
2022-12-04T21:34:11.596Z,8.56
2022-12-04T21:37:35.464Z,8.50
2022-12-04T21:40:57.046Z,8.44
2022-12-04T21:44:20.110Z,8.33
2022-12-04T21:47:43.841Z,8.14
2022-12-04T21:51:21.224Z,8.92
2022-12-04T21:54:56.800Z,9.44
2022-12-04T21:58:20.444Z,9.71
2022-12-04T22:01:42.232Z,9.02
2022-12-04T22:05:06.378Z,9.06
2022-12-04T22:08:32.926Z,8.32
2022-12-04T22:11:54.512Z,8.51
2022-12-04T22:15:16.251Z,8.51
2022-12-04T22:18:38.475Z,8.49
2022-12-04T22:22:00.033Z,8.34
2022-12-04T22:25:21.598Z,8.16
2022-12-04T22:28:43.633Z,8.02
2022-12-04T22:32:05.179Z,7.77
2022-12-04T22:35:26.797Z,7.64
2022-12-04T22:39:08.023Z,7.53
2022-12-04T22:42:30.390Z,7.55
2022-12-04T22:45:51.928Z,7.64
2022-12-04T22:49:13.505Z,7.58
2022-12-04T22:52:40.073Z,7.55
2022-12-04T22:56:09.795Z,7.46
2022-12-04T22:59:33.390Z,7.53
2022-12-04T23:02:54.978Z,7.40
2022-12-04T23:06:18.758Z,7.26
2022-12-04T23:09:40.309Z,7.30
2022-12-04T23:13:04.476Z,7.37
2022-12-04T23:16:26.998Z,7.42
2022-12-04T23:19:50.780Z,7.47
2022-12-04T23:23:12.354Z,7.30
2022-12-04T23:26:43.002Z,7.30
2022-12-04T23:30:05.666Z,7.30
2022-12-04T23:33:27.644Z,7.26
2022-12-04T23:36:54.023Z,7.27
2022-12-04T23:40:20.742Z,7.33
2022-12-04T23:43:45.340Z,7.27
2022-12-04T23:47:09.193Z,7.23
2022-12-04T23:50:33.132Z,7.15
2022-12-04T23:53:57.226Z,7.17
2022-12-04T23:57:21.810Z,7.23
